Weather at Sahabat [Sahabat 16] Airport

Public forecast

Using degrees Celsius for public forecast. Weather courtesy of forecast.io.

Closest aviation weather report (METAR) to Sahabat [Sahabat 16] Airport

Closest report is Tawau Airport, 74.5 nm (137.9 km) SW.

2024/05/21 07:00 (retrieved 17 minutes ago)

WBKW 210700Z 17005KT 120V230 9999 FEW016 33/26 Q1006

Closest aviation forecast (TAF) to Sahabat [Sahabat 16] Airport

Closest forecast is Tawau Airport, 74.5 nm (137.9 km) SW.

2024/05/21 06:00 (retrieved 1 hour ago)

TAF WBKW 210500Z 2106/2206 17006KT 9999 FEW016 BECMG 2110/2112 VRB03KT